地図

経路データ

SID SEASON NUMBER BASIN SUBBASIN NAME ISO_TIME NATURE LAT LON WMO_WIND WMO_PRES WMO_AGENCY TRACK_TYPE DIST2LAND LANDFALL IFLAG USA_AGENCY USA_ATCF_ID USA_LAT USA_LON USA_RECORD USA_STATUS USA_WIND USA_PRES USA_SSHS USA_R34_NE USA_R34_SE USA_R34_SW USA_R34_NW USA_R50_NE USA_R50_SE USA_R50_SW USA_R50_NW USA_R64_NE USA_R64_SE USA_R64_SW USA_R64_NW USA_POCI USA_ROCI USA_RMW USA_EYE TOKYO_LAT TOKYO_LON TOKYO_GRADE TOKYO_WIND TOKYO_PRES TOKYO_R50_DIR TOKYO_R50_LONG TOKYO_R50_SHORT TOKYO_R30_DIR TOKYO_R30_LONG TOKYO_R30_SHORT TOKYO_LAND CMA_LAT CMA_LON CMA_CAT CMA_WIND CMA_PRES HKO_LAT HKO_LON HKO_CAT HKO_WIND HKO_PRES NEWDELHI_LAT NEWDELHI_LON NEWDELHI_GRADE NEWDELHI_WIND NEWDELHI_PRES NEWDELHI_CI NEWDELHI_DP NEWDELHI_POCI REUNION_LAT REUNION_LON REUNION_TYPE REUNION_WIND REUNION_PRES REUNION_TNUM REUNION_CI REUNION_RMW REUNION_R34_NE REUNION_R34_SE REUNION_R34_SW REUNION_R34_NW REUNION_R50_NE REUNION_R50_SE REUNION_R50_SW REUNION_R50_NW REUNION_R64_NE REUNION_R64_SE REUNION_R64_SW REUNION_R64_NW BOM_LAT BOM_LON BOM_TYPE BOM_WIND BOM_PRES BOM_TNUM BOM_CI BOM_RMW BOM_R34_NE BOM_R34_SE BOM_R34_SW BOM_R34_NW BOM_R50_NE BOM_R50_SE BOM_R50_SW BOM_R50_NW BOM_R64_NE BOM_R64_SE BOM_R64_SW BOM_R64_NW BOM_ROCI BOM_POCI BOM_EYE BOM_POS_METHOD BOM_PRES_METHOD NADI_LAT NADI_LON NADI_CAT NADI_WIND NADI_PRES WELLINGTON_LAT WELLINGTON_LON WELLINGTON_WIND WELLINGTON_PRES DS824_LAT DS824_LON DS824_STAGE DS824_WIND DS824_PRES TD9636_LAT TD9636_LON TD9636_STAGE TD9636_WIND TD9636_PRES TD9635_LAT TD9635_LON TD9635_WIND TD9635_PRES TD9635_ROCI NEUMANN_LAT NEUMANN_LON NEUMANN_CLASS NEUMANN_WIND NEUMANN_PRES MLC_LAT MLC_LON MLC_CLASS MLC_WIND MLC_PRES USA_GUST BOM_GUST BOM_GUST_PER REUNION_GUST REUNION_GUST_PER USA_SEAHGT USA_SEARAD_NE USA_SEARAD_SE USA_SEARAD_SW USA_SEARAD_NW STORM_SPEED STORM_DIR
1926255N15314 1926 43 NA NA NOT_NAMED 1926-09-11 12:00:00 TS 15.4000 -46.0000 55 hurdat_atl main 1351 1332 O_____________ hurdat_atl AL071926 15.4000 -46.0000 TS 55 0 11 285
1926255N15314 1926 43 NA NA NOT_NAMED 1926-09-11 15:00:00 TS 15.5378 -46.5524 main 1327 1320 P_____________ AL071926 15.5378 -46.5524 TS 57 0 11 286
1926255N15314 1926 43 NA NA NOT_NAMED 1926-09-11 18:00:00 TS 15.7000 -47.1000 60 hurdat_atl main 1320 1310 O_____________ hurdat_atl AL071926 15.7000 -47.1000 TS 60 0 11 289
1926255N15314 1926 43 NA NA NOT_NAMED 1926-09-11 21:00:00 TS 15.8998 -47.6425 main 1316 1306 P_____________ AL071926 15.8998 -47.6425 TS 60 0 11 291
1926255N15314 1926 43 NA NA NOT_NAMED 1926-09-12 00:00:00 TS 16.1000 -48.2000 60 hurdat_atl main 1309 1295 O_____________ hurdat_atl AL071926 16.1000 -48.2000 TS 60 0 12 288
1926255N15314 1926 43 NA NA NOT_NAMED 1926-09-12 03:00:00 TS 16.2574 -48.7926 main 1305 1285 P_____________ AL071926 16.2574 -48.7926 TS 60 0 12 285
1926255N15314 1926 43 NA NA NOT_NAMED 1926-09-12 06:00:00 TS 16.4000 -49.4000 60 hurdat_atl main 1287 1272 O_____________ hurdat_atl AL071926 16.4000 -49.4000 TS 60 0 12 284
1926255N15314 1926 43 NA NA NOT_NAMED 1926-09-12 09:00:00 TS 16.5498 -49.9926 main 1272 1267 P_____________ AL071926 16.5498 -49.9926 TS 62 0 12 285
1926255N15314 1926 43 NA NA NOT_NAMED 1926-09-12 12:00:00 TS 16.7000 -50.6000 65 hurdat_atl main 1271 1259 O_____________ hurdat_atl AL071926 16.7000 -50.6000 HU 65 1 12 284
1926255N15314 1926 43 NA NA NOT_NAMED 1926-09-12 15:00:00 TS 16.8498 -51.2351 main 1259 1209 P_____________ AL071926 16.8498 -51.2351 HU 67 1 13 284
1926255N15314 1926 43 NA NA NOT_NAMED 1926-09-12 18:00:00 TS 17.0000 -51.9000 70 hurdat_atl main 1209 1155 O_____________ hurdat_atl AL071926 17.0000 -51.9000 HU 70 1 13 283
1926255N15314 1926 43 NA NA NOT_NAMED 1926-09-12 21:00:00 TS 17.1573 -52.5925 main 1162 1111 P_____________ AL071926 17.1573 -52.5925 HU 70 1 14 283
1926255N15314 1926 43 NA NA NOT_NAMED 1926-09-13 00:00:00 TS 17.3000 -53.3000 70 hurdat_atl main 1111 1064 O_____________ hurdat_atl AL071926 17.3000 -53.3000 HU 70 1 14 280
1926255N15314 1926 43 NA NA NOT_NAMED 1926-09-13 03:00:00 TS 17.3998 -54.0077 main 1064 1020 P_____________ AL071926 17.3998 -54.0077 HU 72 1 14 279
1926255N15314 1926 43 NA NA NOT_NAMED 1926-09-13 06:00:00 TS 17.5000 -54.7000 75 hurdat_atl main 1020 987 O_____________ hurdat_atl AL071926 17.5000 -54.7000 HU 75 1 13 281
1926255N15314 1926 43 NA NA NOT_NAMED 1926-09-13 09:00:00 TS 17.6422 -55.3575 main 980 960 P_____________ AL071926 17.6422 -55.3575 HU 75 1 13 284
1926255N15314 1926 43 NA NA NOT_NAMED 1926-09-13 12:00:00 TS 17.8000 -56.0000 75 hurdat_atl main 960 935 O_____________ hurdat_atl AL071926 17.8000 -56.0000 HU 75 1 13 284
1926255N15314 1926 43 NA NA NOT_NAMED 1926-09-13 15:00:00 TS 17.9498 -56.6501 main 929 877 P_____________ AL071926 17.9498 -56.6501 HU 77 1 13 284
1926255N15314 1926 43 NA NA NOT_NAMED 1926-09-13 18:00:00 TS 18.1000 -57.3000 80 hurdat_atl main 877 813 O_____________ hurdat_atl AL071926 18.1000 -57.3000 HU 80 1 13 283
1926255N15314 1926 43 NA NA NOT_NAMED 1926-09-13 21:00:00 TS 18.2423 -57.9502 main 802 738 P_____________ AL071926 18.2423 -57.9502 HU 82 1 13 284
1926255N15314 1926 43 NA NA NOT_NAMED 1926-09-14 00:00:00 TS 18.4000 -58.6000 85 hurdat_atl main 738 675 O_____________ hurdat_atl AL071926 18.4000 -58.6000 HU 85 2 13 286
1926255N15314 1926 43 NA NA NOT_NAMED 1926-09-14 03:00:00 TS 18.5999 -59.2575 main 664 602 P_____________ AL071926 18.5999 -59.2575 HU 85 2 13 288
1926255N15314 1926 43 NA NA NOT_NAMED 1926-09-14 06:00:00 TS 18.8000 -59.9000 85 hurdat_atl main 602 540 O_____________ hurdat_atl AL071926 18.8000 -59.9000 HU 85 2 12 287
1926255N15314 1926 43 NA NA NOT_NAMED 1926-09-14 09:00:00 TS 18.9573 -60.5152 main 541 480 P_____________ AL071926 18.9573 -60.5152 HU 87 2 12 285
1926255N15314 1926 43 NA NA NOT_NAMED 1926-09-14 12:00:00 TS 19.1000 -61.1000 90 hurdat_atl main 480 430 O_____________ hurdat_atl AL071926 19.1000 -61.1000 HU 90 2 11 285
1926255N15314 1926 43 NA NA NOT_NAMED 1926-09-14 15:00:00 TS 19.2574 -61.6800 main 422 374 P_____________ AL071926 19.2574 -61.6800 HU 90 2 11 286
1926255N15314 1926 43 NA NA NOT_NAMED 1926-09-14 18:00:00 TS 19.4000 -62.2000 90 hurdat_atl main 374 338 O_____________ hurdat_atl AL071926 19.4000 -62.2000 HU 90 2 9 285
1926255N15314 1926 43 NA NA NOT_NAMED 1926-09-14 21:00:00 TS 19.5073 -62.6376 main 338 304 P_____________ AL071926 19.5073 -62.6376 HU 92 2 8 285
1926255N15314 1926 43 NA NA NOT_NAMED 1926-09-15 00:00:00 TS 19.6000 -63.0000 95 hurdat_atl main 304 282 O_____________ hurdat_atl AL071926 19.6000 -63.0000 HU 95 2 7 286
1926255N15314 1926 43 NA NA NOT_NAMED 1926-09-15 03:00:00 TS 19.6924 -63.3151 main 282 262 P_____________ AL071926 19.6924 -63.3151 HU 97 3 6 289
1926255N15314 1926 43 NA NA NOT_NAMED 1926-09-15 06:00:00 TS 19.8000 -63.6000 100 hurdat_atl main 262 245 O_____________ hurdat_atl AL071926 19.8000 -63.6000 HU 100 3 6 294
1926255N15314 1926 43 NA NA NOT_NAMED 1926-09-15 09:00:00 TS 19.9349 -63.8851 main 245 238 P_____________ AL071926 19.9349 -63.8851 HU 100 3 6 298
1926255N15314 1926 43 NA NA NOT_NAMED 1926-09-15 12:00:00 TS 20.1000 -64.2000 100 hurdat_atl main 240 232 O_____________ hurdat_atl AL071926 20.1000 -64.2000 HU 100 3 7 300
1926255N15314 1926 43 NA NA NOT_NAMED 1926-09-15 15:00:00 TS 20.3074 -64.5699 main 237 237 P_____________ AL071926 20.3074 -64.5699 HU 102 3 9 298
1926255N15314 1926 43 NA NA NOT_NAMED 1926-09-15 18:00:00 TS 20.5000 -65.0000 105 hurdat_atl main 243 238 O_____________ hurdat_atl AL071926 20.5000 -65.0000 HU 105 3 9 290
1926255N15314 1926 43 NA NA NOT_NAMED 1926-09-15 21:00:00 TS 20.6150 -65.4852 main 246 246 P_____________ AL071926 20.6150 -65.4852 HU 107 3 10 282
1926255N15314 1926 43 NA NA NOT_NAMED 1926-09-16 00:00:00 TS 20.7000 -66.0000 110 hurdat_atl main 257 257 O_____________ hurdat_atl AL071926 20.7000 -66.0000 HU 110 3 10 281
1926255N15314 1926 43 NA NA NOT_NAMED 1926-09-16 03:00:00 TS 20.8074 -66.5000 main 268 268 P_____________ AL071926 20.8074 -66.5000 HU 115 4 10 282
1926255N15314 1926 43 NA NA NOT_NAMED 1926-09-16 06:00:00 TS 20.9000 -67.0000 120 hurdat_atl main 279 259 O_____________ hurdat_atl AL071926 20.9000 -67.0000 HU 120 4 9 278
1926255N15314 1926 43 NA NA NOT_NAMED 1926-09-16 09:00:00 TS 20.9421 -67.4778 main 259 233 P_____________ AL071926 20.9421 -67.4778 HU 122 4 9 276
1926255N15314 1926 43 NA NA NOT_NAMED 1926-09-16 12:00:00 TS 21.0000 -68.0000 125 hurdat_atl main 233 214 O_____________ hurdat_atl AL071926 21.0000 -68.0000 HU 125 4 11 280
1926255N15314 1926 43 NA NA NOT_NAMED 1926-09-16 15:00:00 TS 21.1271 -68.5977 main 214 202 P_____________ AL071926 21.1271 -68.5977 HU 127 4 13 284
1926255N15314 1926 43 NA NA NOT_NAMED 1926-09-16 18:00:00 TS 21.3000 -69.3000 130 hurdat_atl main 203 193 O_____________ hurdat_atl AL071926 21.3000 -69.3000 HU 130 4 15 284
1926255N15314 1926 43 NA NA NOT_NAMED 1926-09-16 21:00:00 TS 21.4925 -70.1200 main 197 191 P_____________ AL071926 21.4925 -70.1200 HU 130 4 16 284
1926255N15314 1926 43 NA NA NOT_NAMED 1926-09-17 00:00:00 TS 21.7000 -71.0000 130 hurdat_atl main 212 146 O_____________ hurdat_atl AL071926 21.7000 -71.0000 HU 130 4 17 284
1926255N15314 1926 43 NA NA NOT_NAMED 1926-09-17 03:00:00 TS 21.8997 -71.8577 main 138 103 P_____________ AL071926 21.8997 -71.8577 HU 130 4 16 284
1926255N15314 1926 43 NA NA NOT_NAMED 1926-09-17 06:00:00 TS 22.1000 -72.7000 130 hurdat_atl main 105 101 O_____________ hurdat_atl AL071926 22.1000 -72.7000 HU 130 4 16 284
1926255N15314 1926 43 NA NA NOT_NAMED 1926-09-17 09:00:00 TS 22.2771 -73.5156 main 126 126 P_____________ AL071926 22.2771 -73.5156 HU 127 4 15 285
1926255N15314 1926 43 NA NA NOT_NAMED 1926-09-17 12:00:00 TS 22.5000 -74.3000 125 hurdat_atl main 168 168 O_____________ hurdat_atl AL071926 22.5000 -74.3000 HU 125 4 15 290
1926255N15314 1926 43 NA NA NOT_NAMED 1926-09-17 15:00:00 TS 22.8046 -75.0580 main 207 207 P_____________ AL071926 22.8046 -75.0580 HU 125 4 16 297
1926255N15314 1926 43 NA NA NOT_NAMED 1926-09-17 18:00:00 TS 23.2000 -75.8000 125 hurdat_atl main 214 151 O_____________ hurdat_atl AL071926 23.2000 -75.8000 HU 125 4 16 303
1926255N15314 1926 43 NA NA NOT_NAMED 1926-09-17 21:00:00 TS 23.6921 -76.5499 main 151 52 P_____________ AL071926 23.6921 -76.5499 HU 125 4 17 306
1926255N15314 1926 43 NA NA NOT_NAMED 1926-09-18 00:00:00 TS 24.2000 -77.3000 125 hurdat_atl main 52 0 O_____________ hurdat_atl AL071926 24.2000 -77.3000 HU 125 4 17 304
1926255N15314 1926 43 NA NA NOT_NAMED 1926-09-18 03:00:00 TS 24.6296 -78.0505 main 0 0 P_____________ AL071926 24.6296 -78.0505 HU 125 4 16 300
1926255N15314 1926 43 NA NA NOT_NAMED 1926-09-18 06:00:00 TS 25.0000 -78.8000 125 hurdat_atl main 53 53 O_____________ hurdat_atl AL071926 25.0000 -78.8000 HU 125 4 15 297
1926255N15314 1926 43 NA NA NOT_NAMED 1926-09-18 09:00:00 TS 25.3148 -79.5655 main 73 0 P_____________ AL071926 25.3148 -79.5655 HU 125 4 15 294
1926255N15314 1926 43 NA NA NOT_NAMED 1926-09-18 12:00:00 TS 25.6000 -80.3000 125 930 hurdat_atl main 0 0 O_____________ hurdat_atl AL071926 25.6000 -80.3000 L HU 125 930 4 14 294
1926255N15314 1926 43 NA NA NOT_NAMED 1926-09-18 15:00:00 TS 25.8998 -80.9952 main 0 0 P_____________ AL071926 25.8998 -80.9952 HU 107 940 3 13 297
1926255N15314 1926 43 NA NA NOT_NAMED 1926-09-18 18:00:00 TS 26.2000 -81.6000 90 950 hurdat_atl main 0 0 O_____________ hurdat_atl AL071926 26.2000 -81.6000 HU 90 950 2 12 302
1926255N15314 1926 43 NA GM NOT_NAMED 1926-09-18 21:00:00 TS 26.5071 -82.0878 main 9 9 P_____________ AL071926 26.5071 -82.0878 HU 95 2 10 307
1926255N15314 1926 43 NA GM NOT_NAMED 1926-09-19 00:00:00 TS 26.8000 -82.5000 100 hurdat_atl main 19 19 O_____________ hurdat_atl AL071926 26.8000 -82.5000 HU 100 3 9 307
1926255N15314 1926 43 NA GM NOT_NAMED 1926-09-19 03:00:00 TS 27.0573 -82.9078 main 37 37 P_____________ AL071926 27.0573 -82.9078 HU 102 3 9 305
1926255N15314 1926 43 NA GM NOT_NAMED 1926-09-19 06:00:00 TS 27.3000 -83.3000 105 hurdat_atl main 69 69 O_____________ hurdat_atl AL071926 27.3000 -83.3000 HU 105 3 9 304
1926255N15314 1926 43 NA GM NOT_NAMED 1926-09-19 09:00:00 TS 27.5424 -83.7077 main 90 85 P_____________ AL071926 27.5424 -83.7077 HU 105 3 9 305
1926255N15314 1926 43 NA GM NOT_NAMED 1926-09-19 12:00:00 TS 27.8000 -84.1000 105 hurdat_atl main 118 118 O_____________ hurdat_atl AL071926 27.8000 -84.1000 HU 105 3 9 310
1926255N15314 1926 43 NA GM NOT_NAMED 1926-09-19 15:00:00 TS 28.0924 -84.4577 main 158 145 P_____________ AL071926 28.0924 -84.4577 HU 105 3 9 314
1926255N15314 1926 43 NA GM NOT_NAMED 1926-09-19 18:00:00 TS 28.4000 -84.8000 105 hurdat_atl main 145 111 O_____________ hurdat_atl AL071926 28.4000 -84.8000 HU 105 3 9 315
1926255N15314 1926 43 NA GM NOT_NAMED 1926-09-19 21:00:00 TS 28.6999 -85.1502 main 111 78 P_____________ AL071926 28.6999 -85.1502 HU 107 3 9 314
1926255N15314 1926 43 NA GM NOT_NAMED 1926-09-20 00:00:00 TS 29.0000 -85.5000 110 hurdat_atl main 78 59 O_____________ hurdat_atl AL071926 29.0000 -85.5000 HU 110 3 9 314
1926255N15314 1926 43 NA GM NOT_NAMED 1926-09-20 03:00:00 TS 29.3075 -85.8576 main 65 58 P_____________ AL071926 29.3075 -85.8576 HU 110 3 9 315
1926255N15314 1926 43 NA GM NOT_NAMED 1926-09-20 06:00:00 TS 29.6000 -86.2000 110 hurdat_atl main 72 56 O_____________ hurdat_atl AL071926 29.6000 -86.2000 HU 110 3 8 315
1926255N15314 1926 43 NA GM NOT_NAMED 1926-09-20 09:00:00 TS 29.8799 -86.5150 main 56 33 P_____________ AL071926 29.8799 -86.5150 HU 107 3 7 314
1926255N15314 1926 43 NA GM NOT_NAMED 1926-09-20 12:00:00 TS 30.1000 -86.8000 105 hurdat_atl main 33 14 O_____________ hurdat_atl AL071926 30.1000 -86.8000 HU 105 3 6 307
1926255N15314 1926 43 NA GM NOT_NAMED 1926-09-20 15:00:00 TS 30.2395 -87.0755 main 14 0 P_____________ AL071926 30.2395 -87.0755 HU 102 3 5 295
1926255N15314 1926 43 NA GM NOT_NAMED 1926-09-20 18:00:00 TS 30.3000 -87.3000 100 hurdat_atl main 9 0 O_____________ hurdat_atl AL071926 30.3000 -87.3000 HU 100 3 3 282
1926255N15314 1926 43 NA GM NOT_NAMED 1926-09-20 21:00:00 TS 30.3035 -87.4335 main 0 0 P_____________ AL071926 30.3035 -87.4335 HU 100 3 3 270
1926255N15314 1926 43 NA GM NOT_NAMED 1926-09-20 22:00:00 TS 30.3000 -87.5000 100 955 hurdat_atl main 0 0 O_____________ hurdat_atl AL071926 30.3000 -87.5000 L HU 100 955 3 5 269
1926255N15314 1926 43 NA NA NOT_NAMED 1926-09-21 00:00:00 TS 30.3000 -87.7000 80 955 hurdat_atl main 0 0 O_____________ hurdat_atl AL071926 30.3000 -87.7000 HU 80 955 1 4 270
1926255N15314 1926 43 NA GM NOT_NAMED 1926-09-21 03:00:00 TS 30.2999 -87.9168 main 11 0 P_____________ AL071926 30.2999 -87.9168 HU 72 962 1 3 270
1926255N15314 1926 43 NA GM NOT_NAMED 1926-09-21 06:00:00 TS 30.3000 -88.1000 65 hurdat_atl main 0 0 I_____________ hurdat_atl AL071926 30.3000 -88.1000 HU 65 969 1 3 269
1926255N15314 1926 43 NA GM NOT_NAMED 1926-09-21 09:00:00 TS 30.2923 -88.3201 main 11 0 P_____________ AL071926 30.2923 -88.3201 HU 62 976 0 4 270
1926255N15314 1926 43 NA GM NOT_NAMED 1926-09-21 12:00:00 TS 30.3000 -88.6000 60 983 hurdat_atl main 9 0 O_____________ hurdat_atl AL071926 30.3000 -88.6000 TS 60 983 0 6 275
1926255N15314 1926 43 NA GM NOT_NAMED 1926-09-21 15:00:00 TS 30.3423 -88.9550 main 11 0 P_____________ AL071926 30.3423 -88.9550 TS 55 0 7 278
1926255N15314 1926 43 NA NA NOT_NAMED 1926-09-21 18:00:00 TS 30.4000 -89.4000 50 hurdat_atl main 0 0 O_____________ hurdat_atl AL071926 30.4000 -89.4000 TS 50 0 8 277
1926255N15314 1926 43 NA NA NOT_NAMED 1926-09-21 21:00:00 TS 30.4499 -89.9200 main 0 0 P_____________ AL071926 30.4499 -89.9200 TS 45 0 10 276
1926255N15314 1926 43 NA NA NOT_NAMED 1926-09-22 00:00:00 TS 30.5000 -90.5000 40 hurdat_atl main 0 0 O_____________ hurdat_atl AL071926 30.5000 -90.5000 TS 40 0 10 276
1926255N15314 1926 43 NA NA NOT_NAMED 1926-09-22 03:00:00 TS 30.5498 -91.0926 main 0 0 P_____________ AL071926 30.5498 -91.0926 TS 35 0 10 276
1926255N15314 1926 43 NA NA NOT_NAMED 1926-09-22 06:00:00 TS 30.6000 -91.7000 30 hurdat_atl main 0 0 O_____________ hurdat_atl AL071926 30.6000 -91.7000 TD 30 -1 10 276
1926255N15314 1926 43 NA NA NOT_NAMED 1926-09-22 09:00:00 TS 30.6505 -92.3024 main 0 0 P_____________ AL071926 30.6505 -92.3024 TD 27 -1 10 276
1926255N15314 1926 43 NA NA NOT_NAMED 1926-09-22 12:00:00 TS 30.7000 -92.9000 25 hurdat_atl main 0 O_____________ hurdat_atl AL071926 30.7000 -92.9000 TD 25 -1 10 275

IBTrACS Databaseについて

本データベースは、米国NOAAが公開する1842年以降の世界の熱帯低気圧のベストトラックデータアーカイブInternational Best Track Archive for Climate Stewardship (IBTrACS)を、ウェブで閲覧しやすい形式に変換したものです。

最終更新日:2021-10-08